sensor_id;sensor_type;location;lat;lon;timestamp;P1;durP1;ratioP1;P2;durP2;ratioP2
63218;SDS011;49320;52.512;13.448;2023-06-14T00:00:33;2.40;;;1.60;;
63218;SDS011;49320;52.512;13.448;2023-06-14T00:03:01;2.60;;;1.80;;
63218;SDS011;49320;52.512;13.448;2023-06-14T00:05:30;3.13;;;2.08;;
63218;SDS011;49320;52.512;13.448;2023-06-14T00:07:59;1.88;;;1.55;;
63218;SDS011;49320;52.512;13.448;2023-06-14T00:10:26;2.70;;;1.88;;
63218;SDS011;49320;52.512;13.448;2023-06-14T00:12:57;3.95;;;1.73;;
63218;SDS011;49320;52.512;13.448;2023-06-14T00:15:25;2.33;;;1.65;;
63218;SDS011;49320;52.512;13.448;2023-06-14T00:17:52;3.88;;;2.05;;
63218;SDS011;49320;52.512;13.448;2023-06-14T00:20:20;2.83;;;1.95;;
63218;SDS011;49320;52.512;13.448;2023-06-14T00:22:47;2.38;;;1.88;;
63218;SDS011;49320;52.512;13.448;2023-06-14T00:25:14;3.22;;;2.17;;
63218;SDS011;49320;52.512;13.448;2023-06-14T00:27:54;5.68;;;2.30;;
63218;SDS011;49320;52.512;13.448;2023-06-14T00:30:23;2.85;;;2.05;;
63218;SDS011;49320;52.512;13.448;2023-06-14T00:32:51;3.72;;;1.80;;
63218;SDS011;49320;52.512;13.448;2023-06-14T00:35:18;3.05;;;1.90;;
63218;SDS011;49320;52.512;13.448;2023-06-14T00:37:45;2.30;;;1.75;;
63218;SDS011;49320;52.512;13.448;2023-06-14T00:40:12;3.08;;;2.00;;
63218;SDS011;49320;52.512;13.448;2023-06-14T00:42:39;3.13;;;2.17;;
63218;SDS011;49320;52.512;13.448;2023-06-14T00:45:06;4.43;;;2.28;;
63218;SDS011;49320;52.512;13.448;2023-06-14T00:47:35;2.20;;;2.00;;
63218;SDS011;49320;52.512;13.448;2023-06-14T00:50:06;2.88;;;2.35;;
63218;SDS011;49320;52.512;13.448;2023-06-14T00:52:35;3.33;;;2.00;;
63218;SDS011;49320;52.512;13.448;2023-06-14T00:55:02;4.30;;;2.15;;
63218;SDS011;49320;52.512;13.448;2023-06-14T00:57:30;4.68;;;2.15;;
63218;SDS011;49320;52.512;13.448;2023-06-14T00:59:57;3.38;;;2.60;;
63218;SDS011;49320;52.512;13.448;2023-06-14T01:02:24;2.25;;;2.05;;
63218;SDS011;49320;52.512;13.448;2023-06-14T01:04:52;2.40;;;2.17;;
63218;SDS011;49320;52.512;13.448;2023-06-14T01:07:25;2.63;;;2.10;;
63218;SDS011;49320;52.512;13.448;2023-06-14T01:10:40;3.85;;;2.42;;
63218;SDS011;49320;52.512;13.448;2023-06-14T01:13:34;3.80;;;2.45;;
63218;SDS011;49320;52.512;13.448;2023-06-14T01:16:04;3.75;;;2.53;;
63218;SDS011;49320;52.512;13.448;2023-06-14T01:18:34;3.00;;;2.25;;
63218;SDS011;49320;52.512;13.448;2023-06-14T01:21:01;3.40;;;2.42;;
63218;SDS011;49320;52.512;13.448;2023-06-14T01:23:32;2.80;;;2.25;;
63218;SDS011;49320;52.512;13.448;2023-06-14T01:25:59;4.80;;;2.17;;
63218;SDS011;49320;52.512;13.448;2023-06-14T01:28:29;2.80;;;2.50;;
63218;SDS011;49320;52.512;13.448;2023-06-14T01:30:58;3.72;;;2.13;;
63218;SDS011;49320;52.512;13.448;2023-06-14T01:33:31;3.40;;;2.13;;
63218;SDS011;49320;52.512;13.448;2023-06-14T01:36:01;4.35;;;2.38;;
63218;SDS011;49320;52.512;13.448;2023-06-14T01:38:32;2.53;;;2.20;;
63218;SDS011;49320;52.512;13.448;2023-06-14T01:40:59;2.38;;;2.17;;
63218;SDS011;49320;52.512;13.448;2023-06-14T01:43:30;2.88;;;2.40;;
63218;SDS011;49320;52.512;13.448;2023-06-14T01:45:59;2.83;;;2.38;;
63218;SDS011;49320;52.512;13.448;2023-06-14T01:48:27;3.55;;;2.03;;
63218;SDS011;49320;52.512;13.448;2023-06-14T01:50:54;3.58;;;2.60;;
63218;SDS011;49320;52.512;13.448;2023-06-14T01:53:20;3.17;;;2.58;;
63218;SDS011;49320;52.512;13.448;2023-06-14T01:55:47;3.58;;;2.53;;
63218;SDS011;49320;52.512;13.448;2023-06-14T01:58:15;3.13;;;2.67;;
63218;SDS011;49320;52.512;13.448;2023-06-14T02:00:45;3.05;;;2.55;;
63218;SDS011;49320;52.512;13.448;2023-06-14T02:03:13;5.55;;;2.70;;
63218;SDS011;49320;52.512;13.448;2023-06-14T02:05:41;3.40;;;2.88;;
63218;SDS011;49320;52.512;13.448;2023-06-14T02:08:08;3.30;;;2.38;;
63218;SDS011;49320;52.512;13.448;2023-06-14T02:10:35;4.50;;;2.47;;
63218;SDS011;49320;52.512;13.448;2023-06-14T02:13:02;3.05;;;2.60;;
63218;SDS011;49320;52.512;13.448;2023-06-14T02:15:29;4.25;;;2.70;;
63218;SDS011;49320;52.512;13.448;2023-06-14T02:18:01;3.45;;;2.67;;
63218;SDS011;49320;52.512;13.448;2023-06-14T02:20:29;2.78;;;2.50;;
63218;SDS011;49320;52.512;13.448;2023-06-14T02:22:56;3.22;;;2.60;;
63218;SDS011;49320;52.512;13.448;2023-06-14T02:25:24;2.92;;;2.50;;
63218;SDS011;49320;52.512;13.448;2023-06-14T02:27:51;4.15;;;2.60;;
63218;SDS011;49320;52.512;13.448;2023-06-14T02:30:18;3.20;;;2.70;;
63218;SDS011;49320;52.512;13.448;2023-06-14T02:32:44;3.40;;;2.50;;
63218;SDS011;49320;52.512;13.448;2023-06-14T02:35:11;3.92;;;2.97;;
63218;SDS011;49320;52.512;13.448;2023-06-14T02:37:39;4.07;;;2.72;;
63218;SDS011;49320;52.512;13.448;2023-06-14T02:40:07;3.15;;;2.50;;
63218;SDS011;49320;52.512;13.448;2023-06-14T02:42:35;4.43;;;2.80;;
63218;SDS011;49320;52.512;13.448;2023-06-14T02:45:02;3.10;;;2.65;;
63218;SDS011;49320;52.512;13.448;2023-06-14T02:47:30;4.47;;;3.13;;
63218;SDS011;49320;52.512;13.448;2023-06-14T02:49:57;3.60;;;2.83;;
63218;SDS011;49320;52.512;13.448;2023-06-14T02:52:23;4.18;;;2.75;;
63218;SDS011;49320;52.512;13.448;2023-06-14T02:54:51;3.80;;;2.80;;
63218;SDS011;49320;52.512;13.448;2023-06-14T02:57:18;3.40;;;2.38;;
63218;SDS011;49320;52.512;13.448;2023-06-14T02:59:45;3.10;;;2.80;;
63218;SDS011;49320;52.512;13.448;2023-06-14T03:02:11;3.75;;;2.85;;
63218;SDS011;49320;52.512;13.448;2023-06-14T03:04:38;4.07;;;3.03;;
63218;SDS011;49320;52.512;13.448;2023-06-14T03:07:05;4.20;;;2.85;;
63218;SDS011;49320;52.512;13.448;2023-06-14T03:09:36;3.58;;;2.80;;
63218;SDS011;49320;52.512;13.448;2023-06-14T03:12:04;3.13;;;2.80;;
63218;SDS011;49320;52.512;13.448;2023-06-14T03:14:36;3.30;;;2.90;;
63218;SDS011;49320;52.512;13.448;2023-06-14T03:17:02;4.20;;;3.10;;
63218;SDS011;49320;52.512;13.448;2023-06-14T03:19:31;3.80;;;2.78;;
63218;SDS011;49320;52.512;13.448;2023-06-14T03:21:58;3.65;;;2.85;;
63218;SDS011;49320;52.512;13.448;2023-06-14T03:24:25;3.10;;;2.75;;
63218;SDS011;49320;52.512;13.448;2023-06-14T03:26:55;4.03;;;2.95;;
63218;SDS011;49320;52.512;13.448;2023-06-14T03:29:23;4.90;;;3.15;;
63218;SDS011;49320;52.512;13.448;2023-06-14T03:31:56;4.68;;;3.03;;
63218;SDS011;49320;52.512;13.448;2023-06-14T03:34:25;3.20;;;2.88;;
63218;SDS011;49320;52.512;13.448;2023-06-14T03:36:53;4.43;;;3.42;;
63218;SDS011;49320;52.512;13.448;2023-06-14T03:39:19;4.55;;;3.33;;
63218;SDS011;49320;52.512;13.448;2023-06-14T03:41:47;3.72;;;2.90;;
63218;SDS011;49320;52.512;13.448;2023-06-14T03:44:15;4.15;;;3.40;;
63218;SDS011;49320;52.512;13.448;2023-06-14T03:46:44;4.45;;;3.08;;
63218;SDS011;49320;52.512;13.448;2023-06-14T03:49:12;3.60;;;3.10;;
63218;SDS011;49320;52.512;13.448;2023-06-14T03:51:40;4.57;;;3.00;;
63218;SDS011;49320;52.512;13.448;2023-06-14T03:54:06;3.70;;;3.30;;
63218;SDS011;49320;52.512;13.448;2023-06-14T03:56:36;3.88;;;2.85;;
63218;SDS011;49320;52.512;13.448;2023-06-14T03:59:03;6.60;;;3.42;;
63218;SDS011;49320;52.512;13.448;2023-06-14T04:01:30;3.08;;;2.70;;
63218;SDS011;49320;52.512;13.448;2023-06-14T04:04:00;3.65;;;3.15;;
63218;SDS011;49320;52.512;13.448;2023-06-14T04:06:27;4.03;;;3.10;;
63218;SDS011;49320;52.512;13.448;2023-06-14T04:08:59;5.30;;;3.83;;
63218;SDS011;49320;52.512;13.448;2023-06-14T04:11:29;4.25;;;3.15;;
63218;SDS011;49320;52.512;13.448;2023-06-14T04:13:57;4.00;;;3.42;;
63218;SDS011;49320;52.512;13.448;2023-06-14T04:16:25;4.03;;;3.42;;
63218;SDS011;49320;52.512;13.448;2023-06-14T04:18:54;3.78;;;3.40;;
63218;SDS011;49320;52.512;13.448;2023-06-14T04:21:21;5.28;;;3.60;;
63218;SDS011;49320;52.512;13.448;2023-06-14T04:23:49;5.40;;;3.53;;
63218;SDS011;49320;52.512;13.448;2023-06-14T04:26:19;8.77;;;3.80;;
63218;SDS011;49320;52.512;13.448;2023-06-14T04:28:48;5.80;;;3.65;;
63218;SDS011;49320;52.512;13.448;2023-06-14T04:31:17;4.95;;;3.85;;
63218;SDS011;49320;52.512;13.448;2023-06-14T04:33:44;6.47;;;3.78;;
63218;SDS011;49320;52.512;13.448;2023-06-14T04:36:13;4.63;;;3.75;;
63218;SDS011;49320;52.512;13.448;2023-06-14T04:38:44;5.70;;;3.63;;
63218;SDS011;49320;52.512;13.448;2023-06-14T04:41:15;3.97;;;3.53;;
63218;SDS011;49320;52.512;13.448;2023-06-14T04:43:44;5.00;;;3.20;;
63218;SDS011;49320;52.512;13.448;2023-06-14T04:46:14;4.43;;;3.42;;
63218;SDS011;49320;52.512;13.448;2023-06-14T04:48:43;5.70;;;3.83;;
63218;SDS011;49320;52.512;13.448;2023-06-14T04:51:11;6.22;;;3.80;;
63218;SDS011;49320;52.512;13.448;2023-06-14T04:53:39;5.00;;;3.38;;
63218;SDS011;49320;52.512;13.448;2023-06-14T04:56:06;4.82;;;3.80;;
63218;SDS011;49320;52.512;13.448;2023-06-14T04:58:33;5.28;;;3.47;;
63218;SDS011;49320;52.512;13.448;2023-06-14T05:01:00;6.22;;;3.72;;
63218;SDS011;49320;52.512;13.448;2023-06-14T05:03:28;6.68;;;3.30;;
63218;SDS011;49320;52.512;13.448;2023-06-14T05:05:57;6.25;;;3.80;;
63218;SDS011;49320;52.512;13.448;2023-06-14T05:08:23;4.57;;;3.25;;
63218;SDS011;49320;52.512;13.448;2023-06-14T05:10:50;6.35;;;3.63;;
63218;SDS011;49320;52.512;13.448;2023-06-14T05:13:18;5.90;;;3.30;;
63218;SDS011;49320;52.512;13.448;2023-06-14T05:15:45;4.85;;;3.55;;
63218;SDS011;49320;52.512;13.448;2023-06-14T05:18:12;6.13;;;3.85;;
63218;SDS011;49320;52.512;13.448;2023-06-14T05:20:39;6.38;;;3.60;;
63218;SDS011;49320;52.512;13.448;2023-06-14T05:23:08;6.30;;;3.42;;
63218;SDS011;49320;52.512;13.448;2023-06-14T05:25:44;6.03;;;4.47;;
63218;SDS011;49320;52.512;13.448;2023-06-14T05:28:12;5.00;;;3.60;;
63218;SDS011;49320;52.512;13.448;2023-06-14T05:30:39;4.57;;;4.05;;
63218;SDS011;49320;52.512;13.448;2023-06-14T05:33:06;4.55;;;3.85;;
63218;SDS011;49320;52.512;13.448;2023-06-14T05:35:33;4.82;;;3.42;;
63218;SDS011;49320;52.512;13.448;2023-06-14T05:38:00;4.10;;;3.47;;
63218;SDS011;49320;52.512;13.448;2023-06-14T05:40:27;4.57;;;3.78;;
63218;SDS011;49320;52.512;13.448;2023-06-14T05:42:54;4.10;;;3.58;;
63218;SDS011;49320;52.512;13.448;2023-06-14T05:45:21;4.93;;;3.58;;
63218;SDS011;49320;52.512;13.448;2023-06-14T05:47:47;4.97;;;3.90;;
63218;SDS011;49320;52.512;13.448;2023-06-14T05:50:15;7.32;;;3.40;;
63218;SDS011;49320;52.512;13.448;2023-06-14T05:52:41;4.55;;;3.60;;
63218;SDS011;49320;52.512;13.448;2023-06-14T05:55:09;3.70;;;3.33;;
63218;SDS011;49320;52.512;13.448;2023-06-14T05:57:39;5.78;;;4.03;;
63218;SDS011;49320;52.512;13.448;2023-06-14T06:00:07;6.32;;;3.42;;
63218;SDS011;49320;52.512;13.448;2023-06-14T06:02:40;5.45;;;3.90;;
63218;SDS011;49320;52.512;13.448;2023-06-14T06:05:11;5.38;;;3.50;;
63218;SDS011;49320;52.512;13.448;2023-06-14T06:07:39;3.83;;;3.40;;
63218;SDS011;49320;52.512;13.448;2023-06-14T06:10:07;5.50;;;4.00;;
63218;SDS011;49320;52.512;13.448;2023-06-14T06:12:34;5.20;;;3.63;;
63218;SDS011;49320;52.512;13.448;2023-06-14T06:15:01;3.65;;;3.15;;
63218;SDS011;49320;52.512;13.448;2023-06-14T06:17:29;5.10;;;3.60;;
63218;SDS011;49320;52.512;13.448;2023-06-14T06:20:15;3.97;;;3.47;;
63218;SDS011;49320;52.512;13.448;2023-06-14T06:22:43;4.47;;;3.63;;
63218;SDS011;49320;52.512;13.448;2023-06-14T06:25:10;4.10;;;3.00;;
63218;SDS011;49320;52.512;13.448;2023-06-14T06:27:37;4.70;;;3.35;;
63218;SDS011;49320;52.512;13.448;2023-06-14T06:30:04;4.53;;;3.45;;
63218;SDS011;49320;52.512;13.448;2023-06-14T06:32:31;3.67;;;3.00;;
63218;SDS011;49320;52.512;13.448;2023-06-14T06:34:58;3.78;;;3.38;;
63218;SDS011;49320;52.512;13.448;2023-06-14T06:37:26;4.18;;;3.13;;
63218;SDS011;49320;52.512;13.448;2023-06-14T06:39:53;5.70;;;3.17;;
63218;SDS011;49320;52.512;13.448;2023-06-14T06:42:20;3.83;;;3.33;;
63218;SDS011;49320;52.512;13.448;2023-06-14T06:44:47;4.47;;;3.22;;
63218;SDS011;49320;52.512;13.448;2023-06-14T06:47:14;3.97;;;3.40;;
63218;SDS011;49320;52.512;13.448;2023-06-14T06:49:40;4.78;;;3.30;;
63218;SDS011;49320;52.512;13.448;2023-06-14T06:52:07;4.97;;;3.58;;
63218;SDS011;49320;52.512;13.448;2023-06-14T06:54:34;4.72;;;3.53;;
63218;SDS011;49320;52.512;13.448;2023-06-14T06:57:01;5.47;;;3.78;;
63218;SDS011;49320;52.512;13.448;2023-06-14T06:59:28;3.55;;;3.10;;
63218;SDS011;49320;52.512;13.448;2023-06-14T07:01:56;3.78;;;3.13;;
63218;SDS011;49320;52.512;13.448;2023-06-14T07:04:23;5.13;;;3.90;;
63218;SDS011;49320;52.512;13.448;2023-06-14T07:06:50;4.28;;;3.58;;
63218;SDS011;49320;52.512;13.448;2023-06-14T07:09:17;4.80;;;3.00;;
63218;SDS011;49320;52.512;13.448;2023-06-14T07:11:46;5.28;;;3.53;;
63218;SDS011;49320;52.512;13.448;2023-06-14T07:14:14;7.00;;;3.30;;
63218;SDS011;49320;52.512;13.448;2023-06-14T07:16:41;6.68;;;3.50;;
63218;SDS011;49320;52.512;13.448;2023-06-14T07:19:09;4.35;;;3.17;;
63218;SDS011;49320;52.512;13.448;2023-06-14T07:21:36;5.43;;;3.42;;
63218;SDS011;49320;52.512;13.448;2023-06-14T07:24:06;4.10;;;3.55;;
63218;SDS011;49320;52.512;13.448;2023-06-14T07:26:34;4.00;;;3.30;;
63218;SDS011;49320;52.512;13.448;2023-06-14T07:29:04;3.90;;;3.50;;
63218;SDS011;49320;52.512;13.448;2023-06-14T07:31:31;4.95;;;3.30;;
63218;SDS011;49320;52.512;13.448;2023-06-14T07:33:57;5.07;;;3.47;;
63218;SDS011;49320;52.512;13.448;2023-06-14T07:36:25;5.00;;;2.88;;
63218;SDS011;49320;52.512;13.448;2023-06-14T07:38:52;5.00;;;3.60;;
63218;SDS011;49320;52.512;13.448;2023-06-14T07:41:18;4.45;;;3.50;;
63218;SDS011;49320;52.512;13.448;2023-06-14T07:43:45;5.20;;;3.45;;
63218;SDS011;49320;52.512;13.448;2023-06-14T07:46:12;4.60;;;3.25;;
63218;SDS011;49320;52.512;13.448;2023-06-14T07:48:39;5.10;;;3.42;;
63218;SDS011;49320;52.512;13.448;2023-06-14T07:51:06;7.82;;;3.53;;
63218;SDS011;49320;52.512;13.448;2023-06-14T07:53:33;4.68;;;3.25;;
63218;SDS011;49320;52.512;13.448;2023-06-14T07:56:00;5.78;;;3.15;;
63218;SDS011;49320;52.512;13.448;2023-06-14T07:58:28;5.00;;;3.35;;
63218;SDS011;49320;52.512;13.448;2023-06-14T08:00:55;4.97;;;3.28;;
63218;SDS011;49320;52.512;13.448;2023-06-14T08:03:22;4.32;;;3.20;;
63218;SDS011;49320;52.512;13.448;2023-06-14T08:05:50;4.90;;;3.05;;
63218;SDS011;49320;52.512;13.448;2023-06-14T08:08:17;5.35;;;2.85;;
63218;SDS011;49320;52.512;13.448;2023-06-14T08:10:44;4.97;;;2.78;;
63218;SDS011;49320;52.512;13.448;2023-06-14T08:13:11;4.15;;;3.08;;
63218;SDS011;49320;52.512;13.448;2023-06-14T08:15:38;6.97;;;2.90;;
63218;SDS011;49320;52.512;13.448;2023-06-14T08:18:05;5.25;;;3.20;;
63218;SDS011;49320;52.512;13.448;2023-06-14T08:20:31;4.88;;;2.60;;
63218;SDS011;49320;52.512;13.448;2023-06-14T08:22:59;3.03;;;2.53;;
63218;SDS011;49320;52.512;13.448;2023-06-14T08:25:25;3.97;;;2.80;;
63218;SDS011;49320;52.512;13.448;2023-06-14T08:27:52;4.18;;;2.97;;
63218;SDS011;49320;52.512;13.448;2023-06-14T08:30:19;3.75;;;2.60;;
63218;SDS011;49320;52.512;13.448;2023-06-14T08:32:46;5.60;;;2.75;;
63218;SDS011;49320;52.512;13.448;2023-06-14T08:35:21;3.72;;;2.70;;
63218;SDS011;49320;52.512;13.448;2023-06-14T08:37:49;3.30;;;2.45;;
63218;SDS011;49320;52.512;13.448;2023-06-14T08:40:20;4.72;;;2.90;;
63218;SDS011;49320;52.512;13.448;2023-06-14T08:42:50;3.53;;;2.45;;
63218;SDS011;49320;52.512;13.448;2023-06-14T08:45:22;3.63;;;2.80;;
63218;SDS011;49320;52.512;13.448;2023-06-14T08:47:53;3.72;;;2.80;;
63218;SDS011;49320;52.512;13.448;2023-06-14T08:50:25;2.78;;;2.47;;
63218;SDS011;49320;52.512;13.448;2023-06-14T08:52:58;2.80;;;2.42;;
63218;SDS011;49320;52.512;13.448;2023-06-14T08:55:31;3.22;;;2.28;;
63218;SDS011;49320;52.512;13.448;2023-06-14T08:58:02;3.10;;;1.95;;
63218;SDS011;49320;52.512;13.448;2023-06-14T09:00:31;3.53;;;2.45;;
63218;SDS011;49320;52.512;13.448;2023-06-14T09:03:00;2.97;;;2.10;;
63218;SDS011;49320;52.512;13.448;2023-06-14T09:05:27;2.80;;;2.53;;
63218;SDS011;49320;52.512;13.448;2023-06-14T09:07:55;3.83;;;2.58;;
63218;SDS011;49320;52.512;13.448;2023-06-14T09:10:31;5.18;;;2.60;;
63218;SDS011;49320;52.512;13.448;2023-06-14T09:13:01;3.63;;;2.53;;
63218;SDS011;49320;52.512;13.448;2023-06-14T09:15:28;3.00;;;2.30;;
63218;SDS011;49320;52.512;13.448;2023-06-14T09:17:56;4.50;;;2.13;;
63218;SDS011;49320;52.512;13.448;2023-06-14T09:20:24;3.55;;;2.20;;
63218;SDS011;49320;52.512;13.448;2023-06-14T09:22:51;5.05;;;2.97;;
63218;SDS011;49320;52.512;13.448;2023-06-14T09:25:19;2.40;;;2.20;;
63218;SDS011;49320;52.512;13.448;2023-06-14T09:28:02;3.17;;;2.08;;
63218;SDS011;49320;52.512;13.448;2023-06-14T09:30:36;4.10;;;2.17;;
63218;SDS011;49320;52.512;13.448;2023-06-14T09:33:04;2.75;;;2.15;;
63218;SDS011;49320;52.512;13.448;2023-06-14T09:35:31;3.55;;;2.30;;
63218;SDS011;49320;52.512;13.448;2023-06-14T09:37:59;3.30;;;2.20;;
63218;SDS011;49320;52.512;13.448;2023-06-14T09:40:26;5.78;;;2.72;;
63218;SDS011;49320;52.512;13.448;2023-06-14T09:42:53;3.85;;;2.20;;
63218;SDS011;49320;52.512;13.448;2023-06-14T09:45:24;2.83;;;2.20;;
63218;SDS011;49320;52.512;13.448;2023-06-14T09:47:55;5.90;;;2.63;;
63218;SDS011;49320;52.512;13.448;2023-06-14T09:50:33;4.40;;;2.60;;
63218;SDS011;49320;52.512;13.448;2023-06-14T09:53:06;3.03;;;2.30;;
63218;SDS011;49320;52.512;13.448;2023-06-14T09:55:37;3.90;;;2.50;;
63218;SDS011;49320;52.512;13.448;2023-06-14T09:58:07;5.05;;;2.53;;
63218;SDS011;49320;52.512;13.448;2023-06-14T10:00:38;3.60;;;2.47;;
63218;SDS011;49320;52.512;13.448;2023-06-14T10:03:11;3.72;;;2.50;;
63218;SDS011;49320;52.512;13.448;2023-06-14T10:05:43;5.82;;;2.58;;
63218;SDS011;49320;52.512;13.448;2023-06-14T10:08:14;3.55;;;2.70;;
63218;SDS011;49320;52.512;13.448;2023-06-14T10:10:45;2.92;;;2.35;;
63218;SDS011;49320;52.512;13.448;2023-06-14T10:13:12;4.40;;;2.67;;
63218;SDS011;49320;52.512;13.448;2023-06-14T10:15:50;3.03;;;2.45;;
63218;SDS011;49320;52.512;13.448;2023-06-14T10:18:31;5.40;;;2.55;;
63218;SDS011;49320;52.512;13.448;2023-06-14T10:21:18;5.28;;;2.63;;
63218;SDS011;49320;52.512;13.448;2023-06-14T10:24:19;3.65;;;2.10;;
63218;SDS011;49320;52.512;13.448;2023-06-14T10:26:56;4.68;;;2.90;;
63218;SDS011;49320;52.512;13.448;2023-06-14T10:29:26;4.82;;;2.55;;
63218;SDS011;49320;52.512;13.448;2023-06-14T10:31:59;3.20;;;2.60;;
63218;SDS011;49320;52.512;13.448;2023-06-14T10:34:28;3.10;;;2.60;;
63218;SDS011;49320;52.512;13.448;2023-06-14T10:39:43;3.63;;;2.47;;
63218;SDS011;49320;52.512;13.448;2023-06-14T10:42:15;6.20;;;2.50;;
63218;SDS011;49320;52.512;13.448;2023-06-14T10:44:45;4.25;;;2.55;;
63218;SDS011;49320;52.512;13.448;2023-06-14T10:52:37;2.85;;;2.42;;
63218;SDS011;49320;52.512;13.448;2023-06-14T10:55:12;4.68;;;2.78;;
63218;SDS011;49320;52.512;13.448;2023-06-14T10:57:51;3.33;;;2.60;;
63218;SDS011;49320;52.512;13.448;2023-06-14T11:00:24;3.92;;;2.50;;
63218;SDS011;49320;52.512;13.448;2023-06-14T11:05:49;5.03;;;2.58;;
63218;SDS011;49320;52.512;13.448;2023-06-14T11:11:28;3.72;;;2.60;;
63218;SDS011;49320;52.512;13.448;2023-06-14T11:14:01;4.40;;;2.55;;
63218;SDS011;49320;52.512;13.448;2023-06-14T11:16:29;5.38;;;2.53;;
63218;SDS011;49320;52.512;13.448;2023-06-14T11:18:59;4.28;;;2.72;;
63218;SDS011;49320;52.512;13.448;2023-06-14T11:21:33;5.45;;;2.50;;
63218;SDS011;49320;52.512;13.448;2023-06-14T11:24:00;5.35;;;2.60;;
63218;SDS011;49320;52.512;13.448;2023-06-14T11:26:30;3.25;;;2.58;;
63218;SDS011;49320;52.512;13.448;2023-06-14T11:29:00;4.68;;;2.63;;
63218;SDS011;49320;52.512;13.448;2023-06-14T11:31:28;5.05;;;2.63;;
63218;SDS011;49320;52.512;13.448;2023-06-14T11:33:57;3.63;;;2.65;;
63218;SDS011;49320;52.512;13.448;2023-06-14T11:36:26;4.45;;;2.47;;
63218;SDS011;49320;52.512;13.448;2023-06-14T11:41:38;3.47;;;2.58;;
63218;SDS011;49320;52.512;13.448;2023-06-14T11:44:08;3.10;;;2.35;;
63218;SDS011;49320;52.512;13.448;2023-06-14T11:46:36;5.95;;;2.80;;
63218;SDS011;49320;52.512;13.448;2023-06-14T11:49:03;4.10;;;2.85;;
63218;SDS011;49320;52.512;13.448;2023-06-14T11:51:33;5.15;;;2.67;;
63218;SDS011;49320;52.512;13.448;2023-06-14T11:54:04;6.78;;;2.70;;
63218;SDS011;49320;52.512;13.448;2023-06-14T11:56:33;6.50;;;2.58;;
63218;SDS011;49320;52.512;13.448;2023-06-14T11:59:02;4.10;;;2.55;;
63218;SDS011;49320;52.512;13.448;2023-06-14T12:01:31;4.20;;;2.40;;
63218;SDS011;49320;52.512;13.448;2023-06-14T12:04:03;6.97;;;2.80;;
63218;SDS011;49320;52.512;13.448;2023-06-14T12:06:30;5.95;;;2.47;;
63218;SDS011;49320;52.512;13.448;2023-06-14T12:09:06;3.20;;;2.42;;
63218;SDS011;49320;52.512;13.448;2023-06-14T12:11:40;3.45;;;2.30;;
63218;SDS011;49320;52.512;13.448;2023-06-14T12:14:08;5.00;;;2.92;;
63218;SDS011;49320;52.512;13.448;2023-06-14T12:16:37;3.67;;;2.63;;
63218;SDS011;49320;52.512;13.448;2023-06-14T12:19:11;3.65;;;2.47;;
63218;SDS011;49320;52.512;13.448;2023-06-14T12:21:41;5.60;;;2.85;;
63218;SDS011;49320;52.512;13.448;2023-06-14T12:24:09;2.92;;;2.38;;
63218;SDS011;49320;52.512;13.448;2023-06-14T12:26:39;5.63;;;2.85;;
63218;SDS011;49320;52.512;13.448;2023-06-14T12:29:07;3.20;;;2.50;;
63218;SDS011;49320;52.512;13.448;2023-06-14T12:31:34;6.75;;;2.30;;
63218;SDS011;49320;52.512;13.448;2023-06-14T12:34:01;4.95;;;2.50;;
63218;SDS011;49320;52.512;13.448;2023-06-14T12:36:28;5.00;;;3.00;;
63218;SDS011;49320;52.512;13.448;2023-06-14T12:38:55;4.15;;;2.33;;
63218;SDS011;49320;52.512;13.448;2023-06-14T12:41:22;3.22;;;2.58;;
63218;SDS011;49320;52.512;13.448;2023-06-14T12:43:49;3.05;;;2.45;;
63218;SDS011;49320;52.512;13.448;2023-06-14T12:46:16;3.85;;;2.47;;
63218;SDS011;49320;52.512;13.448;2023-06-14T12:48:43;3.00;;;2.30;;
63218;SDS011;49320;52.512;13.448;2023-06-14T12:51:10;2.75;;;2.17;;
63218;SDS011;49320;52.512;13.448;2023-06-14T12:53:37;3.80;;;2.20;;
63218;SDS011;49320;52.512;13.448;2023-06-14T12:56:04;6.03;;;2.22;;
63218;SDS011;49320;52.512;13.448;2023-06-14T12:58:31;3.30;;;2.33;;
63218;SDS011;49320;52.512;13.448;2023-06-14T13:00:58;3.72;;;2.75;;
63218;SDS011;49320;52.512;13.448;2023-06-14T13:03:24;4.03;;;2.65;;
63218;SDS011;49320;52.512;13.448;2023-06-14T13:05:52;4.38;;;2.67;;
63218;SDS011;49320;52.512;13.448;2023-06-14T13:08:18;3.53;;;2.58;;
63218;SDS011;49320;52.512;13.448;2023-06-14T13:10:49;4.95;;;2.70;;
63218;SDS011;49320;52.512;13.448;2023-06-14T13:13:16;3.17;;;2.70;;
63218;SDS011;49320;52.512;13.448;2023-06-14T13:15:43;5.97;;;2.88;;
63218;SDS011;49320;52.512;13.448;2023-06-14T13:18:12;4.55;;;2.67;;
63218;SDS011;49320;52.512;13.448;2023-06-14T13:20:39;4.93;;;2.40;;
63218;SDS011;49320;52.512;13.448;2023-06-14T13:23:06;5.40;;;2.80;;
63218;SDS011;49320;52.512;13.448;2023-06-14T13:25:35;3.10;;;2.72;;
63218;SDS011;49320;52.512;13.448;2023-06-14T13:28:04;3.78;;;2.63;;
63218;SDS011;49320;52.512;13.448;2023-06-14T13:30:31;3.22;;;2.53;;
63218;SDS011;49320;52.512;13.448;2023-06-14T13:32:59;3.33;;;2.38;;
63218;SDS011;49320;52.512;13.448;2023-06-14T13:35:27;4.75;;;2.67;;
63218;SDS011;49320;52.512;13.448;2023-06-14T13:37:54;3.63;;;2.08;;
63218;SDS011;49320;52.512;13.448;2023-06-14T13:40:21;4.97;;;2.38;;
63218;SDS011;49320;52.512;13.448;2023-06-14T13:42:48;4.95;;;2.55;;
63218;SDS011;49320;52.512;13.448;2023-06-14T13:45:15;3.45;;;2.20;;
63218;SDS011;49320;52.512;13.448;2023-06-14T13:47:42;3.70;;;2.55;;
63218;SDS011;49320;52.512;13.448;2023-06-14T13:50:09;4.72;;;2.35;;
63218;SDS011;49320;52.512;13.448;2023-06-14T13:52:36;4.13;;;2.72;;
63218;SDS011;49320;52.512;13.448;2023-06-14T13:55:03;6.35;;;2.90;;
63218;SDS011;49320;52.512;13.448;2023-06-14T13:57:31;5.47;;;2.88;;
63218;SDS011;49320;52.512;13.448;2023-06-14T13:59:58;4.38;;;2.58;;
63218;SDS011;49320;52.512;13.448;2023-06-14T14:02:27;5.47;;;2.60;;
63218;SDS011;49320;52.512;13.448;2023-06-14T14:04:55;3.97;;;2.60;;
63218;SDS011;49320;52.512;13.448;2023-06-14T14:07:23;3.63;;;2.78;;
63218;SDS011;49320;52.512;13.448;2023-06-14T14:09:50;2.78;;;2.30;;
63218;SDS011;49320;52.512;13.448;2023-06-14T14:12:17;3.05;;;2.72;;
63218;SDS011;49320;52.512;13.448;2023-06-14T14:14:44;4.63;;;2.75;;
63218;SDS011;49320;52.512;13.448;2023-06-14T14:17:12;4.28;;;2.65;;
63218;SDS011;49320;52.512;13.448;2023-06-14T14:19:39;3.70;;;2.75;;
63218;SDS011;49320;52.512;13.448;2023-06-14T14:22:06;4.40;;;2.80;;
63218;SDS011;49320;52.512;13.448;2023-06-14T14:24:34;4.68;;;2.60;;
63218;SDS011;49320;52.512;13.448;2023-06-14T14:27:01;4.10;;;2.35;;
63218;SDS011;49320;52.512;13.448;2023-06-14T14:29:28;5.90;;;2.80;;
63218;SDS011;49320;52.512;13.448;2023-06-14T14:31:55;3.20;;;2.30;;
63218;SDS011;49320;52.512;13.448;2023-06-14T14:34:24;3.97;;;2.60;;
63218;SDS011;49320;52.512;13.448;2023-06-14T14:36:51;5.45;;;3.08;;
63218;SDS011;49320;52.512;13.448;2023-06-14T14:39:18;3.08;;;2.25;;
63218;SDS011;49320;52.512;13.448;2023-06-14T14:41:45;6.95;;;2.60;;
63218;SDS011;49320;52.512;13.448;2023-06-14T14:44:11;2.97;;;2.50;;
63218;SDS011;49320;52.512;13.448;2023-06-14T14:46:38;3.65;;;3.13;;
63218;SDS011;49320;52.512;13.448;2023-06-14T14:49:05;3.97;;;2.35;;
63218;SDS011;49320;52.512;13.448;2023-06-14T14:51:32;3.10;;;1.98;;
63218;SDS011;49320;52.512;13.448;2023-06-14T14:53:59;3.22;;;2.20;;
63218;SDS011;49320;52.512;13.448;2023-06-14T14:56:26;4.28;;;2.60;;
63218;SDS011;49320;52.512;13.448;2023-06-14T14:58:53;3.30;;;2.42;;